sensor_id;sensor_type;location;lat;lon;timestamp;pressure;altitude;pressure_sealevel;temperature;humidity
9521;BME280;4798;41.574;23.734;2023-04-30T00:01:23;95072.94;;;12.90;90.74
9521;BME280;4798;41.574;23.734;2023-04-30T00:03:51;95072.66;;;13.10;87.31
9521;BME280;4798;41.574;23.734;2023-04-30T00:06:19;95069.03;;;13.01;87.42
9521;BME280;4798;41.574;23.734;2023-04-30T00:08:48;95063.94;;;13.05;87.23
9521;BME280;4798;41.574;23.734;2023-04-30T00:11:16;95065.97;;;13.13;86.71
9521;BME280;4798;41.574;23.734;2023-04-30T00:13:46;95051.41;;;13.05;86.41
9521;BME280;4798;41.574;23.734;2023-04-30T00:16:14;95071.84;;;12.72;88.70
9521;BME280;4798;41.574;23.734;2023-04-30T00:18:43;95063.38;;;12.70;89.76
9521;BME280;4798;41.574;23.734;2023-04-30T00:21:11;95068.97;;;12.88;88.92
9521;BME280;4798;41.574;23.734;2023-04-30T00:23:39;95060.78;;;13.03;86.18
9521;BME280;4798;41.574;23.734;2023-04-30T00:26:08;95059.25;;;12.97;86.01
9521;BME280;4798;41.574;23.734;2023-04-30T00:28:36;95055.03;;;12.58;88.81
9521;BME280;4798;41.574;23.734;2023-04-30T00:31:09;95065.69;;;12.58;89.08
9521;BME280;4798;41.574;23.734;2023-04-30T00:33:37;95069.63;;;12.61;88.09
9521;BME280;4798;41.574;23.734;2023-04-30T00:36:05;95063.28;;;12.75;86.82
9521;BME280;4798;41.574;23.734;2023-04-30T00:38:34;95065.59;;;12.82;85.96
9521;BME280;4798;41.574;23.734;2023-04-30T00:41:03;95021.63;;;12.52;85.61
9521;BME280;4798;41.574;23.734;2023-04-30T00:43:31;95059.91;;;12.70;85.41
9521;BME280;4798;41.574;23.734;2023-04-30T00:46:00;95024.34;;;12.47;84.46
9521;BME280;4798;41.574;23.734;2023-04-30T00:48:31;95071.28;;;12.75;84.38
9521;BME280;4798;41.574;23.734;2023-04-30T00:51:00;95071.06;;;12.72;83.88
9521;BME280;4798;41.574;23.734;2023-04-30T00:53:30;95073.19;;;12.33;86.81
9521;BME280;4798;41.574;23.734;2023-04-30T00:55:58;95082.56;;;12.49;85.29
9521;BME280;4798;41.574;23.734;2023-04-30T00:58:28;95073.06;;;12.43;87.33
9521;BME280;4798;41.574;23.734;2023-04-30T01:00:57;95074.69;;;12.20;88.03
9521;BME280;4798;41.574;23.734;2023-04-30T01:03:27;95068.94;;;12.13;89.33
9521;BME280;4798;41.574;23.734;2023-04-30T01:05:57;95054.72;;;12.23;87.54
9521;BME280;4798;41.574;23.734;2023-04-30T01:08:25;95072.34;;;12.37;86.96
9521;BME280;4798;41.574;23.734;2023-04-30T01:10:57;95062.19;;;12.21;88.07
9521;BME280;4798;41.574;23.734;2023-04-30T01:13:38;95060.53;;;12.25;87.39
9521;BME280;4798;41.574;23.734;2023-04-30T01:16:12;95064.97;;;12.34;86.50
9521;BME280;4798;41.574;23.734;2023-04-30T01:18:47;95068.13;;;12.36;86.09
9521;BME280;4798;41.574;23.734;2023-04-30T01:21:18;95074.22;;;12.37;86.49
9521;BME280;4798;41.574;23.734;2023-04-30T01:24:05;95071.56;;;12.37;85.83
9521;BME280;4798;41.574;23.734;2023-04-30T01:26:51;95068.56;;;12.20;87.33
9521;BME280;4798;41.574;23.734;2023-04-30T01:29:23;95062.69;;;12.23;87.26
9521;BME280;4798;41.574;23.734;2023-04-30T01:31:51;95064.22;;;12.29;86.47
9521;BME280;4798;41.574;23.734;2023-04-30T01:34:20;95055.69;;;12.32;85.29
9521;BME280;4798;41.574;23.734;2023-04-30T01:37:00;95061.69;;;12.19;86.35
9521;BME280;4798;41.574;23.734;2023-04-30T01:39:53;95061.41;;;12.20;86.42
9521;BME280;4798;41.574;23.734;2023-04-30T01:42:31;95058.81;;;12.15;86.18
9521;BME280;4798;41.574;23.734;2023-04-30T01:45:18;95058.06;;;12.09;85.52
9521;BME280;4798;41.574;23.734;2023-04-30T01:47:54;95059.16;;;12.08;86.06
9521;BME280;4798;41.574;23.734;2023-04-30T01:50:31;95064.59;;;11.75;88.88
9521;BME280;4798;41.574;23.734;2023-04-30T01:53:02;95070.94;;;11.79;89.16
9521;BME280;4798;41.574;23.734;2023-04-30T01:55:35;95056.69;;;11.65;89.73
9521;BME280;4798;41.574;23.734;2023-04-30T01:58:07;95069.69;;;11.71;90.21
9521;BME280;4798;41.574;23.734;2023-04-30T02:00:38;95063.19;;;11.82;88.70
9521;BME280;4798;41.574;23.734;2023-04-30T02:03:06;95064.09;;;11.73;90.20
9521;BME280;4798;41.574;23.734;2023-04-30T02:05:35;95055.28;;;11.77;88.54
9521;BME280;4798;41.574;23.734;2023-04-30T02:08:04;95058.09;;;11.86;88.31
9521;BME280;4798;41.574;23.734;2023-04-30T02:10:33;95061.38;;;11.78;88.38
9521;BME280;4798;41.574;23.734;2023-04-30T02:13:01;95056.06;;;11.78;89.00
9521;BME280;4798;41.574;23.734;2023-04-30T02:15:29;95060.59;;;11.77;88.95
9521;BME280;4798;41.574;23.734;2023-04-30T02:17:59;95058.44;;;11.79;88.10
9521;BME280;4798;41.574;23.734;2023-04-30T02:20:27;95067.03;;;11.71;88.40
9521;BME280;4798;41.574;23.734;2023-04-30T02:22:55;95061.75;;;11.66;89.11
9521;BME280;4798;41.574;23.734;2023-04-30T02:25:24;95062.13;;;11.55;90.14
9521;BME280;4798;41.574;23.734;2023-04-30T02:27:52;95062.69;;;11.52;89.68
9521;BME280;4798;41.574;23.734;2023-04-30T02:30:20;95059.16;;;11.56;89.10
9521;BME280;4798;41.574;23.734;2023-04-30T02:32:49;95057.31;;;11.57;88.82
9521;BME280;4798;41.574;23.734;2023-04-30T02:35:18;95049.00;;;11.39;90.53
9521;BME280;4798;41.574;23.734;2023-04-30T02:37:47;95055.84;;;11.45;89.97
9521;BME280;4798;41.574;23.734;2023-04-30T02:40:15;95056.63;;;11.46;90.27
9521;BME280;4798;41.574;23.734;2023-04-30T02:42:43;95059.41;;;11.31;92.48
9521;BME280;4798;41.574;23.734;2023-04-30T02:45:11;95058.31;;;11.37;90.49
9521;BME280;4798;41.574;23.734;2023-04-30T02:47:40;95060.97;;;11.37;89.91
9521;BME280;4798;41.574;23.734;2023-04-30T02:50:08;95068.22;;;11.26;91.51
9521;BME280;4798;41.574;23.734;2023-04-30T02:52:38;95013.59;;;10.97;90.07
9521;BME280;4798;41.574;23.734;2023-04-30T02:55:07;95074.28;;;11.32;90.17
9521;BME280;4798;41.574;23.734;2023-04-30T02:57:36;95073.25;;;11.28;90.60
9521;BME280;4798;41.574;23.734;2023-04-30T03:00:06;95020.78;;;10.91;91.45
9521;BME280;4798;41.574;23.734;2023-04-30T03:02:34;95078.38;;;11.19;91.37
9521;BME280;4798;41.574;23.734;2023-04-30T03:05:03;95058.06;;;11.05;91.61
9521;BME280;4798;41.574;23.734;2023-04-30T03:07:32;95082.69;;;11.10;93.35
9521;BME280;4798;41.574;23.734;2023-04-30T03:10:01;95082.28;;;10.93;94.79
9521;BME280;4798;41.574;23.734;2023-04-30T03:12:30;95092.50;;;11.10;93.47
9521;BME280;4798;41.574;23.734;2023-04-30T03:14:58;95086.38;;;11.14;92.15
9521;BME280;4798;41.574;23.734;2023-04-30T03:17:26;95083.72;;;11.14;91.16
9521;BME280;4798;41.574;23.734;2023-04-30T03:19:55;95084.78;;;11.13;92.02
9521;BME280;4798;41.574;23.734;2023-04-30T03:22:23;95087.16;;;11.15;91.19
9521;BME280;4798;41.574;23.734;2023-04-30T03:24:52;95093.31;;;11.10;92.61
9521;BME280;4798;41.574;23.734;2023-04-30T03:27:22;95088.59;;;11.02;92.32
9521;BME280;4798;41.574;23.734;2023-04-30T03:29:50;95087.59;;;10.93;93.12
9521;BME280;4798;41.574;23.734;2023-04-30T03:32:19;95086.25;;;10.96;92.25
9521;BME280;4798;41.574;23.734;2023-04-30T03:34:47;95089.44;;;10.98;92.10
9521;BME280;4798;41.574;23.734;2023-04-30T03:37:15;95099.19;;;10.63;97.56
9521;BME280;4798;41.574;23.734;2023-04-30T03:39:44;95097.25;;;10.79;94.82
9521;BME280;4798;41.574;23.734;2023-04-30T03:42:12;95100.06;;;10.49;100.00
9521;BME280;4798;41.574;23.734;2023-04-30T03:44:42;95101.03;;;10.63;99.21
9521;BME280;4798;41.574;23.734;2023-04-30T03:47:10;95100.75;;;10.69;98.00
9521;BME280;4798;41.574;23.734;2023-04-30T03:49:38;95098.06;;;10.74;96.63
9521;BME280;4798;41.574;23.734;2023-04-30T03:52:07;95101.53;;;10.75;97.02
9521;BME280;4798;41.574;23.734;2023-04-30T03:54:35;95102.50;;;10.84;96.35
9521;BME280;4798;41.574;23.734;2023-04-30T03:57:03;95111.00;;;10.81;96.22
9521;BME280;4798;41.574;23.734;2023-04-30T03:59:33;95108.31;;;10.86;96.52
9521;BME280;4798;41.574;23.734;2023-04-30T04:02:03;95107.69;;;10.99;94.51
9521;BME280;4798;41.574;23.734;2023-04-30T04:04:32;95104.78;;;10.96;94.36
9521;BME280;4798;41.574;23.734;2023-04-30T04:07:00;95103.66;;;11.07;93.09
9521;BME280;4798;41.574;23.734;2023-04-30T04:09:29;95106.88;;;11.04;94.68
9521;BME280;4798;41.574;23.734;2023-04-30T04:11:58;95105.19;;;11.18;93.01
9521;BME280;4798;41.574;23.734;2023-04-30T04:14:27;95057.88;;;10.96;92.30
9521;BME280;4798;41.574;23.734;2023-04-30T04:16:55;95107.72;;;11.33;90.70
9521;BME280;4798;41.574;23.734;2023-04-30T04:19:27;95117.13;;;11.15;93.48
9521;BME280;4798;41.574;23.734;2023-04-30T04:21:55;95061.09;;;10.88;94.27
9521;BME280;4798;41.574;23.734;2023-04-30T04:24:23;95110.91;;;11.30;93.29
9521;BME280;4798;41.574;23.734;2023-04-30T04:26:52;95114.38;;;11.30;94.79
9521;BME280;4798;41.574;23.734;2023-04-30T04:29:20;95117.09;;;11.49;93.22
9521;BME280;4798;41.574;23.734;2023-04-30T04:31:49;95121.28;;;11.26;94.54
9521;BME280;4798;41.574;23.734;2023-04-30T04:34:17;95122.06;;;10.93;100.00
9521;BME280;4798;41.574;23.734;2023-04-30T04:36:48;95129.78;;;10.90;100.00
9521;BME280;4798;41.574;23.734;2023-04-30T04:39:16;95123.66;;;10.45;100.00
9521;BME280;4798;41.574;23.734;2023-04-30T04:41:45;95135.19;;;10.15;100.00
9521;BME280;4798;41.574;23.734;2023-04-30T04:44:13;95133.69;;;10.53;100.00
9521;BME280;4798;41.574;23.734;2023-04-30T04:46:41;95135.69;;;10.76;100.00
9521;BME280;4798;41.574;23.734;2023-04-30T04:49:10;95142.88;;;10.71;100.00
9521;BME280;4798;41.574;23.734;2023-04-30T04:51:39;95129.53;;;10.86;100.00
9521;BME280;4798;41.574;23.734;2023-04-30T04:54:09;95139.94;;;11.16;100.00
9521;BME280;4798;41.574;23.734;2023-04-30T04:56:37;95142.16;;;11.38;100.00
9521;BME280;4798;41.574;23.734;2023-04-30T04:59:07;95108.88;;;11.51;97.41
9521;BME280;4798;41.574;23.734;2023-04-30T05:01:36;95145.84;;;11.76;96.10
9521;BME280;4798;41.574;23.734;2023-04-30T05:04:07;95144.13;;;11.85;95.01
9521;BME280;4798;41.574;23.734;2023-04-30T05:06:36;95144.53;;;11.97;94.01
9521;BME280;4798;41.574;23.734;2023-04-30T05:09:04;95139.47;;;12.00;93.00
9521;BME280;4798;41.574;23.734;2023-04-30T05:11:36;95135.63;;;11.88;94.11
9521;BME280;4798;41.574;23.734;2023-04-30T05:14:04;95135.41;;;12.08;93.76
9521;BME280;4798;41.574;23.734;2023-04-30T05:16:33;95132.63;;;12.18;92.06
9521;BME280;4798;41.574;23.734;2023-04-30T05:19:01;95141.78;;;12.31;90.44
9521;BME280;4798;41.574;23.734;2023-04-30T05:21:29;95119.47;;;12.50;87.62
9521;BME280;4798;41.574;23.734;2023-04-30T05:23:58;95142.66;;;12.87;86.32
9521;BME280;4798;41.574;23.734;2023-04-30T05:26:27;95143.25;;;13.21;84.33
9521;BME280;4798;41.574;23.734;2023-04-30T05:28:56;95143.81;;;13.37;82.34
9521;BME280;4798;41.574;23.734;2023-04-30T05:31:25;95135.53;;;13.71;80.96
9521;BME280;4798;41.574;23.734;2023-04-30T05:33:53;95135.00;;;13.55;81.88
9521;BME280;4798;41.574;23.734;2023-04-30T05:36:21;95139.72;;;13.26;84.05
9521;BME280;4798;41.574;23.734;2023-04-30T05:38:50;95156.44;;;13.13;84.19
9521;BME280;4798;41.574;23.734;2023-04-30T05:41:20;95142.56;;;13.48;83.62
9521;BME280;4798;41.574;23.734;2023-04-30T05:43:48;95147.13;;;13.93;81.33
9521;BME280;4798;41.574;23.734;2023-04-30T05:46:18;95144.47;;;13.61;81.64
9521;BME280;4798;41.574;23.734;2023-04-30T05:48:47;95142.75;;;13.84;80.54
9521;BME280;4798;41.574;23.734;2023-04-30T05:51:15;95144.06;;;14.00;79.89
9521;BME280;4798;41.574;23.734;2023-04-30T05:53:43;95139.56;;;13.68;78.97
9521;BME280;4798;41.574;23.734;2023-04-30T05:56:11;95122.41;;;14.34;78.29
9521;BME280;4798;41.574;23.734;2023-04-30T05:58:40;95140.66;;;14.40;77.70
9521;BME280;4798;41.574;23.734;2023-04-30T06:01:08;95139.16;;;14.61;76.57
9521;BME280;4798;41.574;23.734;2023-04-30T06:03:38;95132.19;;;15.23;73.44
9521;BME280;4798;41.574;23.734;2023-04-30T06:06:06;95132.97;;;15.60;71.54
9521;BME280;4798;41.574;23.734;2023-04-30T06:08:35;95123.47;;;15.54;71.15
9521;BME280;4798;41.574;23.734;2023-04-30T06:11:03;95128.31;;;16.05;70.71
9521;BME280;4798;41.574;23.734;2023-04-30T06:13:32;95121.91;;;16.14;68.79
9521;BME280;4798;41.574;23.734;2023-04-30T06:16:01;95117.56;;;16.27;67.76
9521;BME280;4798;41.574;23.734;2023-04-30T06:18:29;95127.66;;;16.69;67.68
9521;BME280;4798;41.574;23.734;2023-04-30T06:20:59;95053.31;;;15.40;69.21
9521;BME280;4798;41.574;23.734;2023-04-30T06:23:27;95124.53;;;16.84;68.05
9521;BME280;4798;41.574;23.734;2023-04-30T06:25:55;95118.81;;;16.29;66.70
9521;BME280;4798;41.574;23.734;2023-04-30T06:28:24;95116.03;;;16.99;65.52
9521;BME280;4798;41.574;23.734;2023-04-30T06:30:52;95104.06;;;17.40;66.03
9521;BME280;4798;41.574;23.734;2023-04-30T06:33:21;95113.53;;;17.11;64.30
9521;BME280;4798;41.574;23.734;2023-04-30T06:35:49;95046.94;;;16.28;64.95
9521;BME280;4798;41.574;23.734;2023-04-30T06:38:22;95120.44;;;17.72;64.21
9521;BME280;4798;41.574;23.734;2023-04-30T06:40:50;95101.44;;;18.41;63.12
9521;BME280;4798;41.574;23.734;2023-04-30T06:43:18;95103.06;;;17.78;61.58
9521;BME280;4798;41.574;23.734;2023-04-30T06:45:46;95086.88;;;19.00;59.40
9521;BME280;4798;41.574;23.734;2023-04-30T06:48:15;95096.63;;;19.26;57.28
9521;BME280;4798;41.574;23.734;2023-04-30T06:50:43;95057.66;;;19.40;57.14
9521;BME280;4798;41.574;23.734;2023-04-30T06:53:11;95096.25;;;19.69;58.04
9521;BME280;4798;41.574;23.734;2023-04-30T06:55:43;95034.00;;;18.92;56.54
9521;BME280;4798;41.574;23.734;2023-04-30T06:58:12;95094.78;;;18.47;57.26
9521;BME280;4798;41.574;23.734;2023-04-30T07:00:41;95079.81;;;18.37;58.82
9521;BME280;4798;41.574;23.734;2023-04-30T07:03:10;95085.03;;;18.92;58.64
9521;BME280;4798;41.574;23.734;2023-04-30T07:05:38;95095.38;;;19.64;56.74
9521;BME280;4798;41.574;23.734;2023-04-30T07:08:07;95087.28;;;20.09;55.62
9521;BME280;4798;41.574;23.734;2023-04-30T07:10:36;95093.66;;;19.93;55.08
9521;BME280;4798;41.574;23.734;2023-04-30T07:13:05;95090.34;;;20.80;52.58
9521;BME280;4798;41.574;23.734;2023-04-30T07:15:34;95093.16;;;21.64;54.00
9521;BME280;4798;41.574;23.734;2023-04-30T07:18:03;95095.63;;;21.69;52.53
9521;BME280;4798;41.574;23.734;2023-04-30T07:20:31;95084.50;;;22.29;50.24
9521;BME280;4798;41.574;23.734;2023-04-30T07:22:59;95081.34;;;22.58;49.99
9521;BME280;4798;41.574;23.734;2023-04-30T07:25:28;95084.59;;;22.64;49.36
9521;BME280;4798;41.574;23.734;2023-04-30T07:27:56;95085.63;;;22.28;47.85
9521;BME280;4798;41.574;23.734;2023-04-30T07:30:26;95086.41;;;22.44;47.96
9521;BME280;4798;41.574;23.734;2023-04-30T07:32:55;95082.50;;;22.26;46.80
9521;BME280;4798;41.574;23.734;2023-04-30T07:35:23;95083.00;;;22.47;48.15
9521;BME280;4798;41.574;23.734;2023-04-30T07:37:52;95073.75;;;23.14;46.63
9521;BME280;4798;41.574;23.734;2023-04-30T07:40:20;95009.63;;;23.53;45.23
9521;BME280;4798;41.574;23.734;2023-04-30T07:43:01;95063.94;;;23.83;44.01
9521;BME280;4798;41.574;23.734;2023-04-30T07:45:32;95056.47;;;23.99;45.27
9521;BME280;4798;41.574;23.734;2023-04-30T07:48:01;95041.16;;;24.29;43.00
9521;BME280;4798;41.574;23.734;2023-04-30T07:50:30;95071.06;;;24.36;42.58
9521;BME280;4798;41.574;23.734;2023-04-30T07:53:00;95067.88;;;23.47;45.14
9521;BME280;4798;41.574;23.734;2023-04-30T07:55:29;95035.75;;;22.57;45.64
9521;BME280;4798;41.574;23.734;2023-04-30T07:57:57;95064.19;;;22.04;46.38
9521;BME280;4798;41.574;23.734;2023-04-30T08:00:26;95058.28;;;22.30;46.87
9521;BME280;4798;41.574;23.734;2023-04-30T08:02:56;95063.53;;;21.79;47.26
9521;BME280;4798;41.574;23.734;2023-04-30T08:05:26;95060.28;;;21.74;47.37
9521;BME280;4798;41.574;23.734;2023-04-30T08:07:55;95061.81;;;22.81;45.94
9521;BME280;4798;41.574;23.734;2023-04-30T08:10:23;95054.41;;;23.31;44.17
9521;BME280;4798;41.574;23.734;2023-04-30T08:12:52;95048.88;;;24.27;43.15
9521;BME280;4798;41.574;23.734;2023-04-30T08:15:20;95054.66;;;23.84;43.50
9521;BME280;4798;41.574;23.734;2023-04-30T08:17:50;95020.09;;;24.19;42.55
9521;BME280;4798;41.574;23.734;2023-04-30T08:20:20;95051.31;;;24.85;41.44
9521;BME280;4798;41.574;23.734;2023-04-30T08:22:49;95045.03;;;23.86;42.87
9521;BME280;4798;41.574;23.734;2023-04-30T08:25:18;95027.84;;;23.75;43.14
9521;BME280;4798;41.574;23.734;2023-04-30T08:27:46;95053.63;;;23.12;44.49
9521;BME280;4798;41.574;23.734;2023-04-30T08:30:15;95047.75;;;23.10;43.23
9521;BME280;4798;41.574;23.734;2023-04-30T08:32:43;95003.06;;;22.27;44.44
9521;BME280;4798;41.574;23.734;2023-04-30T08:35:11;95046.13;;;22.55;44.49
9521;BME280;4798;41.574;23.734;2023-04-30T08:37:41;95042.84;;;22.46;44.35
9521;BME280;4798;41.574;23.734;2023-04-30T08:40:10;94973.13;;;22.17;44.91
9521;BME280;4798;41.574;23.734;2023-04-30T08:42:43;95034.69;;;21.95;45.71
9521;BME280;4798;41.574;23.734;2023-04-30T08:45:12;95027.94;;;22.67;45.24
9521;BME280;4798;41.574;23.734;2023-04-30T08:47:40;95036.78;;;22.18;45.80
9521;BME280;4798;41.574;23.734;2023-04-30T08:50:10;95038.63;;;21.98;46.59
9521;BME280;4798;41.574;23.734;2023-04-30T08:52:40;95023.56;;;22.98;45.11
9521;BME280;4798;41.574;23.734;2023-04-30T08:55:09;95020.38;;;24.37;43.05
9521;BME280;4798;41.574;23.734;2023-04-30T08:57:38;95018.88;;;23.71;42.98
9521;BME280;4798;41.574;23.734;2023-04-30T09:00:07;95011.88;;;24.12;41.77
9521;BME280;4798;41.574;23.734;2023-04-30T09:02:39;95021.47;;;24.32;41.56
9521;BME280;4798;41.574;23.734;2023-04-30T09:05:10;94972.91;;;24.46;41.13
9521;BME280;4798;41.574;23.734;2023-04-30T09:07:42;95007.59;;;25.82;36.90
9521;BME280;4798;41.574;23.734;2023-04-30T09:10:31;95010.53;;;25.70;37.51
9521;BME280;4798;41.574;23.734;2023-04-30T09:13:01;95004.59;;;25.95;39.22
9521;BME280;4798;41.574;23.734;2023-04-30T09:15:31;94938.03;;;25.71;38.60
9521;BME280;4798;41.574;23.734;2023-04-30T09:18:08;94990.22;;;26.96;37.01
9521;BME280;4798;41.574;23.734;2023-04-30T09:20:37;94991.69;;;27.69;35.07
9521;BME280;4798;41.574;23.734;2023-04-30T09:23:21;94988.53;;;27.49;34.20
9521;BME280;4798;41.574;23.734;2023-04-30T09:25:50;94980.47;;;28.02;34.74
9521;BME280;4798;41.574;23.734;2023-04-30T09:28:18;94958.59;;;27.56;36.21
9521;BME280;4798;41.574;23.734;2023-04-30T09:30:50;94979.19;;;27.40;33.90
9521;BME280;4798;41.574;23.734;2023-04-30T09:33:19;94975.28;;;27.48;32.56
9521;BME280;4798;41.574;23.734;2023-04-30T09:35:47;94971.06;;;27.57;33.68
9521;BME280;4798;41.574;23.734;2023-04-30T09:38:27;94964.91;;;26.23;36.03
9521;BME280;4798;41.574;23.734;2023-04-30T09:40:57;94969.59;;;25.86;36.73
9521;BME280;4798;41.574;23.734;2023-04-30T09:43:26;94958.22;;;26.75;36.49
9521;BME280;4798;41.574;23.734;2023-04-30T09:45:56;94959.88;;;26.87;35.84
9521;BME280;4798;41.574;23.734;2023-04-30T09:48:26;94865.09;;;26.89;34.98
9521;BME280;4798;41.574;23.734;2023-04-30T09:50:54;94959.19;;;26.42;35.38
9521;BME280;4798;41.574;23.734;2023-04-30T09:53:23;94951.75;;;25.85;35.10
9521;BME280;4798;41.574;23.734;2023-04-30T09:55:53;94949.19;;;24.92;36.04
9521;BME280;4798;41.574;23.734;2023-04-30T09:58:27;94948.53;;;25.02;37.38
9521;BME280;4798;41.574;23.734;2023-04-30T10:00:57;94945.53;;;24.51;37.40
9521;BME280;4798;41.574;23.734;2023-04-30T10:03:26;94943.06;;;24.69;36.80
9521;BME280;4798;41.574;23.734;2023-04-30T10:06:01;94940.81;;;25.78;34.53
9521;BME280;4798;41.574;23.734;2023-04-30T10:08:35;94922.06;;;27.79;33.87
9521;BME280;4798;41.574;23.734;2023-04-30T10:11:08;94923.59;;;28.36;33.25
9521;BME280;4798;41.574;23.734;2023-04-30T10:13:42;94915.16;;;26.77;32.29
9521;BME280;4798;41.574;23.734;2023-04-30T10:16:14;94917.38;;;28.50;30.97
9521;BME280;4798;41.574;23.734;2023-04-30T10:18:49;94921.28;;;29.53;30.88
9521;BME280;4798;41.574;23.734;2023-04-30T10:21:21;94915.34;;;29.69;29.24
9521;BME280;4798;41.574;23.734;2023-04-30T10:23:50;94909.25;;;30.02;28.60
9521;BME280;4798;41.574;23.734;2023-04-30T10:26:21;94916.75;;;29.25;28.38
9521;BME280;4798;41.574;23.734;2023-04-30T10:28:51;94911.22;;;30.01;28.09
9521;BME280;4798;41.574;23.734;2023-04-30T10:31:21;94904.53;;;28.43;29.38
9521;BME280;4798;41.574;23.734;2023-04-30T10:33:54;94911.53;;;27.73;31.44
9521;BME280;4798;41.574;23.734;2023-04-30T10:36:32;94921.78;;;26.18;32.31
9521;BME280;4798;41.574;23.734;2023-04-30T10:39:01;94868.56;;;26.14;31.94
9521;BME280;4798;41.574;23.734;2023-04-30T10:41:32;94899.91;;;27.98;31.64
9521;BME280;4798;41.574;23.734;2023-04-30T10:44:01;94859.41;;;27.68;30.34
9521;BME280;4798;41.574;23.734;2023-04-30T10:46:33;94900.25;;;27.61;31.68
9521;BME280;4798;41.574;23.734;2023-04-30T10:49:02;94856.97;;;27.10;32.29
9521;BME280;4798;41.574;23.734;2023-04-30T10:51:49;94904.94;;;26.02;32.59
9521;BME280;4798;41.574;23.734;2023-04-30T10:54:24;94893.75;;;25.63;32.20
9521;BME280;4798;41.574;23.734;2023-04-30T10:57:08;94896.44;;;24.86;33.70
9521;BME280;4798;41.574;23.734;2023-04-30T10:59:41;94899.41;;;24.18;34.50
9521;BME280;4798;41.574;23.734;2023-04-30T11:02:13;94901.13;;;23.58;35.96
9521;BME280;4798;41.574;23.734;2023-04-30T11:05:10;94897.69;;;25.29;34.77
9521;BME280;4798;41.574;23.734;2023-04-30T11:07:46;94891.94;;;25.78;33.98
9521;BME280;4798;41.574;23.734;2023-04-30T11:10:19;94894.72;;;25.04;35.68
9521;BME280;4798;41.574;23.734;2023-04-30T11:12:50;94891.56;;;24.69;35.06
9521;BME280;4798;41.574;23.734;2023-04-30T11:15:23;94888.88;;;24.73;34.10
9521;BME280;4798;41.574;23.734;2023-04-30T11:17:56;94891.09;;;24.93;33.08
9521;BME280;4798;41.574;23.734;2023-04-30T11:20:25;94880.94;;;26.11;32.22
9521;BME280;4798;41.574;23.734;2023-04-30T11:23:10;94879.66;;;25.95;32.79
9521;BME280;4798;41.574;23.734;2023-04-30T11:25:46;94872.06;;;26.14;32.22
9521;BME280;4798;41.574;23.734;2023-04-30T11:28:18;94867.94;;;26.41;32.17
9521;BME280;4798;41.574;23.734;2023-04-30T11:30:50;94866.72;;;27.25;31.42
9521;BME280;4798;41.574;23.734;2023-04-30T11:33:19;94860.97;;;28.18;30.11
9521;BME280;4798;41.574;23.734;2023-04-30T11:35:49;94860.13;;;28.46;29.61
9521;BME280;4798;41.574;23.734;2023-04-30T11:38:20;94868.00;;;27.59;30.52
9521;BME280;4798;41.574;23.734;2023-04-30T11:40:50;94798.75;;;27.39;30.10
9521;BME280;4798;41.574;23.734;2023-04-30T11:43:24;94865.28;;;27.88;29.99
9521;BME280;4798;41.574;23.734;2023-04-30T11:46:04;94866.00;;;28.23;29.60
9521;BME280;4798;41.574;23.734;2023-04-30T11:48:33;94842.19;;;28.52;28.70
9521;BME280;4798;41.574;23.734;2023-04-30T11:51:03;94867.19;;;28.12;30.08
9521;BME280;4798;41.574;23.734;2023-04-30T11:53:33;94871.97;;;26.65;31.92
9521;BME280;4798;41.574;23.734;2023-04-30T11:56:04;94865.94;;;26.28;31.64
9521;BME280;4798;41.574;23.734;2023-04-30T11:58:35;94866.22;;;25.61;33.13
9521;BME280;4798;41.574;23.734;2023-04-30T12:01:06;94872.22;;;24.71;33.46
9521;BME280;4798;41.574;23.734;2023-04-30T12:03:42;94881.63;;;24.21;33.72
9521;BME280;4798;41.574;23.734;2023-04-30T12:06:11;94894.88;;;23.54;36.08
9521;BME280;4798;41.574;23.734;2023-04-30T12:08:40;94897.41;;;23.02;36.68
9521;BME280;4798;41.574;23.734;2023-04-30T12:11:19;94900.34;;;23.16;37.71
9521;BME280;4798;41.574;23.734;2023-04-30T12:13:52;94893.31;;;23.11;38.64
9521;BME280;4798;41.574;23.734;2023-04-30T12:16:21;94890.16;;;23.48;37.83
9521;BME280;4798;41.574;23.734;2023-04-30T12:18:49;94891.47;;;23.57;36.07
9521;BME280;4798;41.574;23.734;2023-04-30T12:21:22;94894.56;;;24.60;34.37
9521;BME280;4798;41.574;23.734;2023-04-30T12:23:51;94878.31;;;25.31;33.80
9521;BME280;4798;41.574;23.734;2023-04-30T12:26:20;94874.97;;;26.49;31.02
9521;BME280;4798;41.574;23.734;2023-04-30T12:28:48;94864.94;;;26.64;31.49
9521;BME280;4798;41.574;23.734;2023-04-30T12:31:18;94820.94;;;26.30;31.37
9521;BME280;4798;41.574;23.734;2023-04-30T12:33:53;94874.81;;;26.18;32.21
9521;BME280;4798;41.574;23.734;2023-04-30T12:36:28;94879.44;;;26.89;31.43
9521;BME280;4798;41.574;23.734;2023-04-30T12:39:05;94829.66;;;25.48;33.07
9521;BME280;4798;41.574;23.734;2023-04-30T12:41:39;94896.44;;;24.56;36.51
9521;BME280;4798;41.574;23.734;2023-04-30T12:44:16;94894.50;;;23.78;38.30
9521;BME280;4798;41.574;23.734;2023-04-30T12:46:46;94905.13;;;23.22;40.16
9521;BME280;4798;41.574;23.734;2023-04-30T12:49:25;94895.56;;;23.96;38.87
9521;BME280;4798;41.574;23.734;2023-04-30T12:52:01;94887.47;;;23.51;39.12
9521;BME280;4798;41.574;23.734;2023-04-30T12:54:31;94750.13;;;23.38;38.31
9521;BME280;4798;41.574;23.734;2023-04-30T12:57:00;94899.59;;;23.83;37.95
9521;BME280;4798;41.574;23.734;2023-04-30T12:59:29;94908.78;;;22.92;39.58
9521;BME280;4798;41.574;23.734;2023-04-30T13:02:07;94899.34;;;21.93;41.79
9521;BME280;4798;41.574;23.734;2023-04-30T13:04:35;94903.47;;;21.28;43.13
9521;BME280;4798;41.574;23.734;2023-04-30T13:07:04;94784.44;;;20.79;43.10
9521;BME280;4798;41.574;23.734;2023-04-30T13:09:33;94907.03;;;20.89;43.58
9521;BME280;4798;41.574;23.734;2023-04-30T13:12:03;94892.88;;;20.12;44.85
9521;BME280;4798;41.574;23.734;2023-04-30T13:14:32;94897.91;;;20.14;45.73
9521;BME280;4798;41.574;23.734;2023-04-30T13:17:01;94882.75;;;19.70;48.08
9521;BME280;4798;41.574;23.734;2023-04-30T13:19:33;94885.09;;;19.59;50.13
9521;BME280;4798;41.574;23.734;2023-04-30T13:22:01;94877.00;;;19.35;49.44
9521;BME280;4798;41.574;23.734;2023-04-30T13:24:29;94821.47;;;19.39;49.09
9521;BME280;4798;41.574;23.734;2023-04-30T13:26:58;94877.38;;;20.21;48.48